Time;durP1;ratioP1;P1;durP2;ratioP2;P2;SDS_P1;SDS_P2;PMS_P1;PMS_P2;Temp;Humidity;BMP_temperature;BMP_pressure;BME280_temperature;BME280_humidity;BME280_pressure;Samples;Min_cycle;Max_cycle;Signal;HPM_P1;HPM_P2
2023/02/09 00:00:07;;;;;;;9.90;5.32;;;;;;;-2.14;40.63;103166.09;4961787;28;20122;-71
2023/02/09 00:02:38;;;;;;;10.18;4.25;;;;;;;-2.27;41.11;103156.91;4988790;28;20058;-71
2023/02/09 00:05:04;;;;;;;10.77;5.22;;;;;;;-2.24;40.81;103154.53;4962841;28;20584;-72
2023/02/09 00:07:29;;;;;;;11.90;4.90;;;;;;;-2.27;41.03;103144.09;4960445;28;20050;-71
2023/02/09 00:09:55;;;;;;;13.27;4.20;;;;;;;-2.26;40.76;103146.75;4961127;28;20031;-72
2023/02/09 00:15:05;;;;;;;13.63;5.93;;;;;;;-2.29;40.79;103136.38;4962107;28;20041;-72
2023/02/09 00:17:35;;;;;;;12.00;5.13;;;;;;;-2.26;40.70;103139.06;4959889;28;20054;-69
2023/02/09 00:20:01;;;;;;;9.65;4.07;;;;;;;-2.18;40.71;103142.00;4960725;28;20054;-72
2023/02/09 00:22:27;;;;;;;11.73;4.30;;;;;;;-2.10;40.45;103142.38;4966874;28;20138;-68
2023/02/09 00:24:52;;;;;;;10.52;4.53;;;;;;;-2.17;40.76;103135.22;4962235;28;20038;-73
2023/02/09 00:27:18;;;;;;;10.68;5.07;;;;;;;-2.25;41.26;103133.13;4961010;28;20046;-73
2023/02/09 00:29:43;;;;;;;12.40;5.30;;;;;;;-2.09;40.20;103133.88;4958920;28;20071;-72
2023/02/09 00:32:09;;;;;;;12.15;4.82;;;;;;;-2.05;40.24;103133.22;4944915;28;20051;-75
2023/02/09 00:34:36;;;;;;;11.18;4.95;;;;;;;-1.99;40.21;103124.97;4972613;28;20038;-74
2023/02/09 00:37:01;;;;;;;10.00;4.78;;;;;;;-2.03;40.12;103123.94;4960175;28;20042;-75
2023/02/09 00:39:27;;;;;;;10.02;5.28;;;;;;;-2.01;40.44;103124.88;4963050;28;20039;-75
2023/02/09 00:42:04;;;;;;;8.55;4.43;;;;;;;-2.26;40.80;103118.56;4958422;28;20038;-71
2023/02/09 00:44:30;;;;;;;9.20;5.43;;;;;;;-2.08;40.68;103115.16;4964093;28;20558;-71
2023/02/09 00:46:55;;;;;;;13.45;5.13;;;;;;;-2.28;40.86;103127.84;4959359;28;20034;-71
2023/02/09 00:49:21;;;;;;;11.05;5.50;;;;;;;-2.29;40.79;103118.44;4968347;28;20522;-71
2023/02/09 00:51:47;;;;;;;9.27;4.47;;;;;;;-2.33;40.90;103119.06;4944553;28;20035;-73
2023/02/09 00:54:13;;;;;;;10.27;4.93;;;;;;;-2.37;40.97;103114.59;4963933;28;20137;-73
2023/02/09 00:56:38;;;;;;;13.90;6.00;;;;;;;-2.48;41.62;103113.19;4958709;28;20125;-69
2023/02/09 00:59:06;;;;;;;12.20;5.40;;;;;;;-2.80;41.91;103109.88;4963613;28;20050;-68
2023/02/09 01:01:34;;;;;;;8.68;4.72;;;;;;;-2.55;41.88;103100.88;4961456;28;20046;-67
2023/02/09 01:03:59;;;;;;;13.07;5.50;;;;;;;-2.46;41.32;103106.47;4973759;28;20070;-66
2023/02/09 01:06:25;;;;;;;12.82;4.88;;;;;;;-2.91;42.03;103104.19;4971578;28;20034;-68
2023/02/09 01:08:50;;;;;;;12.00;4.65;;;;;;;-2.61;41.73;103095.44;4973905;28;20087;-66
2023/02/09 01:11:16;;;;;;;9.30;5.50;;;;;;;-2.66;42.01;103093.53;4963613;28;20077;-69
2023/02/09 01:13:42;;;;;;;12.68;5.70;;;;;;;-2.82;42.38;103096.13;4980686;28;20313;-72
2023/02/09 01:16:14;;;;;;;14.70;5.35;;;;;;;-2.77;41.76;103086.13;4952765;28;20125;-70
2023/02/09 01:18:40;;;;;;;8.02;4.90;;;;;;;-2.44;41.31;103086.94;4962172;28;20491;-68
2023/02/09 01:21:09;;;;;;;13.05;5.22;;;;;;;-2.67;41.73;103081.53;4959328;28;20485;-68
2023/02/09 01:23:35;;;;;;;8.32;5.10;;;;;;;-2.76;41.98;103072.50;4965584;28;20137;-69
2023/02/09 01:26:05;;;;;;;10.32;5.63;;;;;;;-2.82;42.25;103070.53;4959994;28;20530;-69
2023/02/09 01:28:33;;;;;;;11.52;4.22;;;;;;;-3.09;42.61;103064.88;4949942;28;20403;-69
2023/02/09 01:31:01;;;;;;;9.75;4.43;;;;;;;-2.95;42.45;103063.03;4961936;28;20027;-69
2023/02/09 01:33:27;;;;;;;12.02;4.55;;;;;;;-2.90;42.52;103072.69;4961541;28;20049;-69
2023/02/09 01:36:03;;;;;;;12.23;5.30;;;;;;;-3.38;43.10;103060.81;4961393;28;20030;-68
2023/02/09 01:38:28;;;;;;;11.10;4.63;;;;;;;-3.35;42.74;103066.94;4963610;28;20073;-67
2023/02/09 01:40:54;;;;;;;11.10;4.90;;;;;;;-2.78;41.94;103056.19;4993808;28;20326;-68
2023/02/09 01:43:19;;;;;;;13.98;4.70;;;;;;;-2.80;42.10;103060.34;4962407;28;20411;-68
2023/02/09 01:45:48;;;;;;;12.00;4.35;;;;;;;-2.78;41.82;103057.09;4962736;28;20081;-68
2023/02/09 01:48:20;;;;;;;11.18;5.15;;;;;;;-2.63;41.71;103054.41;4949043;28;20030;-68
2023/02/09 01:50:50;;;;;;;13.45;4.90;;;;;;;-2.92;42.02;103053.81;4994717;28;20030;-69
2023/02/09 01:53:17;;;;;;;9.43;4.78;;;;;;;-2.49;41.11;103049.94;4978422;28;20050;-69
2023/02/09 01:55:52;;;;;;;10.18;4.38;;;;;;;-2.67;41.42;103048.25;4959938;28;20046;-67
2023/02/09 01:58:20;;;;;;;9.50;4.80;;;;;;;-2.57;41.12;103041.03;4994402;28;20058;-76
2023/02/09 02:00:47;;;;;;;10.65;4.47;;;;;;;-2.73;41.34;103035.16;4969942;28;20517;-74
2023/02/09 02:03:17;;;;;;;10.20;4.47;;;;;;;-2.64;41.13;103033.03;4964126;28;20060;-75
2023/02/09 02:05:49;;;;;;;10.02;5.18;;;;;;;-2.52;41.03;103034.44;4977306;28;20170;-70
2023/02/09 02:08:15;;;;;;;13.80;5.32;;;;;;;-2.61;40.96;103028.88;4978973;28;20056;-69
2023/02/09 02:10:40;;;;;;;10.13;4.68;;;;;;;-3.33;42.08;103033.78;4972446;28;20038;-70
2023/02/09 02:13:06;;;;;;;10.13;4.40;;;;;;;-2.74;41.01;103020.56;4964857;28;20038;-70
2023/02/09 02:16:09;;;;;;;8.77;3.80;;;;;;;-2.56;40.77;103017.16;4962311;28;20043;-70
2023/02/09 02:18:43;;;;;;;8.90;4.00;;;;;;;-3.01;41.31;103009.84;4962926;28;20145;-70
2023/02/09 02:21:17;;;;;;;7.22;4.07;;;;;;;-2.84;41.44;103008.16;4962156;28;20037;-70
2023/02/09 02:24:05;;;;;;;8.10;4.38;;;;;;;-3.03;41.50;102997.78;4968587;28;20046;-70
2023/02/09 02:26:47;;;;;;;8.98;3.60;;;;;;;-3.10;41.31;102994.91;4993396;28;20030;-70
2023/02/09 02:29:28;;;;;;;10.38;4.28;;;;;;;-3.16;41.72;102986.03;4953658;28;20046;-70
2023/02/09 02:31:59;;;;;;;8.82;4.90;;;;;;;-2.80;40.66;102975.88;4963157;28;20037;-70
2023/02/09 02:34:51;;;;;;;5.27;2.30;;;;;;;-2.65;40.22;102977.53;4962110;28;20038;-70
2023/02/09 02:37:46;;;;;;;8.48;3.78;;;;;;;-3.08;41.08;102969.41;4960380;28;20038;-71
2023/02/09 02:40:21;;;;;;;10.70;4.35;;;;;;;-2.91;40.41;102967.69;4963689;28;20595;-70
2023/02/09 02:43:05;;;;;;;7.90;4.18;;;;;;;-2.95;40.09;102961.53;4963644;28;20053;-70
2023/02/09 02:45:39;;;;;;;9.25;3.72;;;;;;;-2.92;40.01;102958.25;4969932;28;20034;-68
2023/02/09 02:48:43;;;;;;;11.30;3.90;;;;;;;-3.18;40.53;102956.94;4960039;28;20286;-70
2023/02/09 02:51:32;;;;;;;6.63;3.65;;;;;;;-2.87;39.71;102954.22;4970058;28;20108;-69
2023/02/09 02:54:02;;;;;;;6.63;3.67;;;;;;;-2.57;39.29;102964.22;4963777;28;20052;-70
2023/02/09 02:56:57;;;;;;;7.90;4.07;;;;;;;-2.46;39.07;102963.06;4992637;28;20038;-70
2023/02/09 02:59:31;;;;;;;7.90;3.35;;;;;;;-2.51;39.08;102964.53;4960729;28;20100;-70
2023/02/09 03:02:06;;;;;;;8.48;3.60;;;;;;;-2.51;39.22;102969.66;4962243;28;20278;-70
2023/02/09 03:04:34;;;;;;;9.25;3.60;;;;;;;-2.73;39.45;102968.59;4992366;28;20072;-69
2023/02/09 03:07:04;;;;;;;8.80;4.32;;;;;;;-2.68;39.64;102956.88;4961793;28;20062;-65
2023/02/09 03:09:29;;;;;;;9.02;3.72;;;;;;;-2.87;39.57;102954.22;4962268;28;20030;-71
2023/02/09 03:11:59;;;;;;;5.90;3.65;;;;;;;-3.33;40.37;102936.59;4949934;28;20045;-72
2023/02/09 03:14:46;;;;;;;7.00;2.78;;;;;;;-2.75;39.19;102921.56;4967761;28;20042;-73
2023/02/09 03:17:24;;;;;;;7.28;3.80;;;;;;;-2.32;38.53;102912.47;4962075;28;20059;-71
2023/02/09 03:19:56;;;;;;;7.25;3.30;;;;;;;-2.80;39.82;102910.25;4961837;28;20038;-71
2023/02/09 03:22:37;;;;;;;10.40;3.95;;;;;;;-2.48;38.61;102918.56;4962460;28;20058;-69
2023/02/09 03:25:21;;;;;;;11.73;3.25;;;;;;;-2.88;39.64;102924.34;4963136;28;20105;-70
2023/02/09 03:28:01;;;;;;;9.55;3.72;;;;;;;-2.43;38.80;102907.72;4968988;28;20046;-71
2023/02/09 03:30:26;;;;;;;7.32;2.88;;;;;;;-2.74;38.77;102902.81;4958356;28;20031;-73
2023/02/09 03:32:55;;;;;;;6.50;3.38;;;;;;;-2.87;39.68;102895.38;4963747;28;20446;-73
2023/02/09 03:35:24;;;;;;;8.48;2.83;;;;;;;-2.60;38.74;102884.69;4967505;28;20035;-74
2023/02/09 03:37:49;;;;;;;4.90;2.30;;;;;;;-2.67;39.00;102876.75;4960967;28;20050;-73
2023/02/09 03:40:15;;;;;;;5.28;2.95;;;;;;;-2.57;38.94;102869.50;4969717;28;20029;-73
2023/02/09 03:42:41;;;;;;;9.70;3.20;;;;;;;-2.84;39.19;102868.25;4960401;28;20065;-71
2023/02/09 03:45:07;;;;;;;9.68;3.13;;;;;;;-3.05;39.65;102863.00;4962545;28;20542;-72
2023/02/09 03:47:33;;;;;;;5.68;3.15;;;;;;;-2.51;38.67;102882.59;4959915;28;20066;-77
2023/02/09 03:49:58;;;;;;;9.82;2.95;;;;;;;-2.30;38.19;102878.44;4995083;28;20521;-77
2023/02/09 03:52:24;;;;;;;5.85;2.30;;;;;;;-2.84;39.01;102872.50;4951295;28;20044;-77
2023/02/09 03:54:49;;;;;;;10.48;3.55;;;;;;;-3.13;39.99;102869.41;4960965;28;20546;-75
2023/02/09 03:57:15;;;;;;;14.48;3.35;;;;;;;-2.94;39.51;102863.50;4963916;28;20566;-76
2023/02/09 03:59:40;;;;;;;5.63;2.53;;;;;;;-2.96;39.50;102847.22;4958989;28;20038;-75
2023/02/09 04:02:07;;;;;;;6.85;2.67;;;;;;;-3.38;40.29;102852.00;4961740;28;20049;-76
2023/02/09 04:04:33;;;;;;;8.63;2.72;;;;;;;-2.72;39.28;102852.59;4959974;28;20566;-77
2023/02/09 04:06:59;;;;;;;5.72;2.92;;;;;;;-2.97;39.67;102854.81;4969713;28;20184;-76
2023/02/09 04:09:25;;;;;;;9.27;2.70;;;;;;;-2.90;39.34;102855.16;4963901;28;20038;-76
2023/02/09 04:11:51;;;;;;;4.00;2.53;;;;;;;-2.89;39.40;102856.06;4978717;28;20042;-75
2023/02/09 04:14:17;;;;;;;10.25;2.88;;;;;;;-3.18;40.00;102852.06;4963608;28;20040;-75
2023/02/09 04:16:42;;;;;;;8.25;3.33;;;;;;;-2.74;39.37;102841.41;4967978;28;20096;-75
2023/02/09 04:19:08;;;;;;;12.23;3.25;;;;;;;-3.08;40.09;102854.28;4961198;28;20492;-68
2023/02/09 04:21:35;;;;;;;9.25;3.28;;;;;;;-3.17;40.28;102861.50;4958547;28;20507;-71
2023/02/09 04:24:00;;;;;;;9.10;3.80;;;;;;;-2.95;39.93;102863.44;4976666;28;20070;-70
2023/02/09 04:26:26;;;;;;;9.00;3.10;;;;;;;-2.88;39.50;102862.91;4960398;28;20109;-69
2023/02/09 04:28:51;;;;;;;6.75;3.05;;;;;;;-2.74;39.71;102859.31;4959616;28;20047;-72
2023/02/09 04:31:17;;;;;;;7.53;3.05;;;;;;;-2.56;39.26;102871.22;4962851;28;20053;-71
2023/02/09 04:33:42;;;;;;;6.68;2.75;;;;;;;-2.62;39.23;102871.84;4964146;28;20126;-70
2023/02/09 04:36:08;;;;;;;8.38;3.40;;;;;;;-2.59;39.51;102889.03;4963855;28;20042;-70
2023/02/09 04:38:34;;;;;;;4.80;2.47;;;;;;;-2.51;38.98;102874.91;4958178;28;20125;-68
2023/02/09 04:41:01;;;;;;;7.85;3.33;;;;;;;-2.97;39.81;102870.16;4961025;28;20054;-68
2023/02/09 04:43:26;;;;;;;7.38;2.80;;;;;;;-3.48;40.72;102876.22;4956659;28;20520;-68
2023/02/09 04:45:53;;;;;;;7.15;3.20;;;;;;;-2.95;39.90;102883.91;4960903;28;22263;-70
2023/02/09 04:48:20;;;;;;;8.57;3.42;;;;;;;-2.62;39.62;102884.63;4982052;28;20131;-69
2023/02/09 04:50:46;;;;;;;6.40;2.60;;;;;;;-2.67;39.67;102881.88;4960944;28;20037;-70
2023/02/09 04:53:11;;;;;;;7.72;3.05;;;;;;;-2.66;39.72;102877.63;4950972;28;20045;-69
2023/02/09 04:55:38;;;;;;;5.00;2.08;;;;;;;-2.61;39.78;102885.50;4965835;28;20039;-70
2023/02/09 05:00:47;;;;;;;8.15;2.35;;;;;;;-3.00;40.42;102880.25;4961058;28;20038;-68
2023/02/09 05:03:13;;;;;;;8.93;2.35;;;;;;;-2.85;40.09;102875.84;4964803;28;20046;-68
2023/02/09 05:05:40;;;;;;;8.40;3.63;;;;;;;-2.79;40.10;102877.84;4961882;28;20035;-70
2023/02/09 05:08:05;;;;;;;8.52;3.50;;;;;;;-2.74;40.19;102879.78;4966204;28;20045;-69
2023/02/09 05:10:31;;;;;;;9.38;3.22;;;;;;;-2.95;40.80;102881.34;4965425;28;20038;-69
2023/02/09 05:12:56;;;;;;;8.88;3.05;;;;;;;-3.27;41.53;102873.84;4964397;28;20058;-69
2023/02/09 05:15:22;;;;;;;7.70;3.25;;;;;;;-3.03;40.99;102867.28;4961915;28;20138;-68
2023/02/09 05:17:47;;;;;;;8.35;3.05;;;;;;;-3.20;41.15;102857.13;4970559;28;20051;-69
2023/02/09 05:20:13;;;;;;;8.38;2.97;;;;;;;-3.36;40.81;102865.72;4966647;28;20045;-69
2023/02/09 05:22:38;;;;;;;7.32;2.75;;;;;;;-3.28;41.26;102858.44;4960617;28;20046;-69
2023/02/09 05:25:04;;;;;;;6.97;2.97;;;;;;;-3.20;41.02;102858.81;4965272;28;20034;-68
2023/02/09 05:27:30;;;;;;;7.32;2.72;;;;;;;-2.86;40.18;102867.31;4961481;28;20050;-68
2023/02/09 05:29:55;;;;;;;5.70;2.45;;;;;;;-2.78;40.38;102865.13;4965836;28;20120;-70
2023/02/09 05:32:20;;;;;;;7.10;3.70;;;;;;;-3.24;41.09;102868.00;4961367;28;21228;-69
2023/02/09 05:34:46;;;;;;;8.05;3.58;;;;;;;-3.50;42.04;102856.47;4964082;28;20068;-69
2023/02/09 05:37:11;;;;;;;5.60;2.13;;;;;;;-3.35;41.60;102853.81;4963492;28;20312;-70
2023/02/09 05:39:37;;;;;;;7.38;4.15;;;;;;;-3.57;41.98;102851.88;4965374;28;20499;-68
2023/02/09 05:42:14;;;;;;;11.52;3.38;;;;;;;-3.37;41.56;102855.41;4963555;28;20123;-69
2023/02/09 05:44:50;;;;;;;7.32;3.45;;;;;;;-3.20;41.32;102862.25;4964924;28;20034;-68
2023/02/09 05:47:18;;;;;;;9.00;3.40;;;;;;;-3.31;41.52;102855.72;4966009;28;20050;-70
2023/02/09 05:49:44;;;;;;;7.53;3.53;;;;;;;-3.17;41.17;102852.16;4971468;28;20451;-72
2023/02/09 05:52:10;;;;;;;7.70;2.47;;;;;;;-3.30;41.43;102858.34;4963171;28;20122;-73
2023/02/09 05:54:37;;;;;;;8.68;3.05;;;;;;;-2.75;40.12;102869.50;4961368;28;20031;-69
2023/02/09 05:57:03;;;;;;;8.45;3.00;;;;;;;-3.26;41.34;102870.47;4970574;28;20855;-69
2023/02/09 05:59:29;;;;;;;11.32;4.50;;;;;;;-3.11;41.19;102877.16;4961962;28;20514;-67
2023/02/09 06:01:55;;;;;;;5.28;2.75;;;;;;;-2.99;41.05;102871.75;4963802;28;20037;-69
2023/02/09 06:04:20;;;;;;;8.30;3.00;;;;;;;-3.10;40.93;102869.56;4964256;28;20116;-69
2023/02/09 06:06:46;;;;;;;7.90;3.28;;;;;;;-3.55;41.86;102881.81;4964610;28;20038;-69
2023/02/09 06:09:11;;;;;;;17.98;3.67;;;;;;;-3.14;41.40;102887.22;4964052;28;20388;-72
2023/02/09 06:11:37;;;;;;;6.18;3.42;;;;;;;-2.99;41.13;102882.00;4962558;28;20053;-70
2023/02/09 06:14:02;;;;;;;10.13;3.47;;;;;;;-3.21;41.22;102880.94;4964879;28;20042;-73
2023/02/09 06:16:27;;;;;;;6.70;2.72;;;;;;;-3.23;41.44;102877.41;4976932;28;20037;-74
2023/02/09 06:18:53;;;;;;;7.03;3.00;;;;;;;-3.71;42.18;102889.50;4930214;28;20189;-66
2023/02/09 06:21:18;;;;;;;13.52;3.75;;;;;;;-3.37;41.77;102904.88;4973706;28;20126;-67
2023/02/09 06:23:44;;;;;;;11.85;3.63;;;;;;;-3.10;40.96;102900.25;4961410;28;20705;-67
2023/02/09 06:26:12;;;;;;;7.30;3.00;;;;;;;-3.37;41.44;102909.13;4965396;28;20096;-67
2023/02/09 06:28:38;;;;;;;8.30;3.00;;;;;;;-3.12;41.40;102911.22;4946938;28;20575;-68
2023/02/09 06:31:04;;;;;;;12.48;3.85;;;;;;;-3.01;41.17;102915.19;4943783;28;20034;-68
2023/02/09 06:33:30;;;;;;;8.23;3.10;;;;;;;-3.06;41.26;102921.75;4939472;28;20420;-67
2023/02/09 06:35:55;;;;;;;9.50;3.10;;;;;;;-3.42;41.90;102920.81;4935480;28;20038;-68
2023/02/09 06:38:21;;;;;;;12.23;3.40;;;;;;;-3.30;41.77;102908.63;4943103;28;20141;-66
2023/02/09 06:40:46;;;;;;;8.00;3.00;;;;;;;-2.78;40.53;102903.50;4944837;28;20089;-72
2023/02/09 06:43:14;;;;;;;6.75;3.30;;;;;;;-3.08;41.25;102908.00;4941306;28;20062;-65
2023/02/09 06:45:40;;;;;;;7.63;3.45;;;;;;;-3.35;41.95;102902.41;4943885;28;20035;-73
2023/02/09 06:48:06;;;;;;;9.75;3.55;;;;;;;-3.56;42.43;102912.41;4945002;28;20042;-73
2023/02/09 06:50:33;;;;;;;9.30;3.92;;;;;;;-3.24;41.54;102921.72;4942081;28;20488;-69
2023/02/09 06:52:58;;;;;;;12.13;3.85;;;;;;;-3.41;42.13;102925.09;4942130;28;20047;-73
2023/02/09 06:55:24;;;;;;;5.88;2.70;;;;;;;-3.49;42.00;102914.50;4949303;28;20407;-74
2023/02/09 06:57:49;;;;;;;10.38;3.88;;;;;;;-3.17;41.52;102923.78;4950122;28;20054;-73
2023/02/09 07:00:15;;;;;;;9.38;3.28;;;;;;;-2.98;41.16;102932.34;4943054;28;20027;-74
2023/02/09 07:02:42;;;;;;;12.98;3.47;;;;;;;-3.23;41.25;102918.34;4973831;28;20113;-69
2023/02/09 07:05:09;;;;;;;7.38;3.40;;;;;;;-3.29;42.11;102918.06;4939866;28;20031;-69
2023/02/09 07:07:35;;;;;;;9.40;3.67;;;;;;;-3.32;41.86;102929.03;4945168;28;20133;-69
2023/02/09 07:10:01;;;;;;;8.63;3.30;;;;;;;-3.18;41.63;102914.38;4940969;28;20055;-70
2023/02/09 07:12:26;;;;;;;10.25;4.47;;;;;;;-2.71;40.82;102917.50;4931936;28;20055;-68
2023/02/09 07:14:55;;;;;;;5.28;2.95;;;;;;;-2.94;41.33;102918.91;4942587;28;20049;-68
2023/02/09 07:17:20;;;;;;;10.63;4.07;;;;;;;-3.36;41.93;102921.09;4943950;28;20400;-68
2023/02/09 07:19:46;;;;;;;9.95;3.65;;;;;;;-3.49;42.66;102919.63;4956417;28;20109;-68
2023/02/09 07:22:12;;;;;;;13.88;2.90;;;;;;;-3.71;43.19;102922.75;4944281;28;20062;-67
2023/02/09 07:24:37;;;;;;;4.75;2.90;;;;;;;-3.51;42.86;102921.22;4973453;28;20039;-69
2023/02/09 07:27:04;;;;;;;6.47;3.45;;;;;;;-3.61;42.86;102924.94;4939003;28;20474;-68
2023/02/09 07:29:30;;;;;;;10.00;4.13;;;;;;;-3.15;41.84;102916.19;4949683;28;20801;-68
2023/02/09 07:31:56;;;;;;;6.82;3.97;;;;;;;-3.18;41.87;102900.66;4938816;28;20081;-69
2023/02/09 07:34:22;;;;;;;8.65;3.78;;;;;;;-3.24;41.90;102898.69;4942854;28;20038;-71
2023/02/09 07:36:48;;;;;;;6.68;3.45;;;;;;;-4.07;43.84;102904.69;4940934;28;20134;-66
2023/02/09 07:39:13;;;;;;;7.80;3.47;;;;;;;-3.14;41.68;102893.25;4943463;28;20471;-70
2023/02/09 07:41:39;;;;;;;8.20;3.83;;;;;;;-3.30;42.06;102903.50;4942139;28;20125;-68
2023/02/09 07:44:05;;;;;;;12.98;4.28;;;;;;;-3.51;42.39;102904.19;4940670;28;20646;-67
2023/02/09 07:46:30;;;;;;;8.85;3.60;;;;;;;-3.32;42.32;102902.53;4944357;28;20031;-71
2023/02/09 07:48:56;;;;;;;9.63;3.38;;;;;;;-2.85;41.73;102896.31;4942498;28;20043;-69
2023/02/09 07:51:26;;;;;;;7.75;3.45;;;;;;;-3.39;42.72;102885.16;4943031;28;20109;-69
2023/02/09 07:53:52;;;;;;;10.00;3.38;;;;;;;-2.80;41.66;102879.53;4942344;28;20054;-70
2023/02/09 07:56:18;;;;;;;12.00;3.65;;;;;;;-2.92;41.53;102861.88;4940115;28;20034;-70
2023/02/09 07:58:43;;;;;;;9.13;2.80;;;;;;;-2.93;41.26;102872.06;4946513;28;20579;-67
2023/02/09 08:01:11;;;;;;;12.13;3.28;;;;;;;-2.57;40.85;102857.56;4941587;28;20562;-69
2023/02/09 08:03:39;;;;;;;11.60;4.05;;;;;;;-2.50;41.07;102868.97;4940285;28;20105;-70
2023/02/09 08:06:17;;;;;;;8.45;3.58;;;;;;;-2.78;41.10;102872.81;4926360;28;20046;-69
2023/02/09 08:08:44;;;;;;;7.95;3.65;;;;;;;-2.95;41.46;102869.44;4942833;28;20684;-69
2023/02/09 08:11:11;;;;;;;7.03;2.85;;;;;;;-2.81;41.60;102864.09;4941247;28;20058;-68
2023/02/09 08:13:40;;;;;;;10.23;4.50;;;;;;;-3.26;42.57;102870.47;4936711;28;20046;-70
2023/02/09 08:16:11;;;;;;;13.00;5.75;;;;;;;-2.98;42.23;102864.16;4944738;28;20437;-71
2023/02/09 08:18:52;;;;;;;9.68;4.80;;;;;;;-2.58;40.95;102870.28;4946226;28;20043;-69
2023/02/09 08:21:19;;;;;;;10.40;3.97;;;;;;;-2.49;40.96;102880.94;4962975;28;20039;-71
2023/02/09 08:23:50;;;;;;;7.43;3.40;;;;;;;-1.43;39.10;102883.94;4939079;28;20159;-71
2023/02/09 08:26:15;;;;;;;9.90;3.75;;;;;;;-1.73;39.30;102892.88;4962002;28;20142;-71
2023/02/09 08:28:44;;;;;;;12.57;3.75;;;;;;;-1.57;39.20;102900.44;4940640;28;20047;-69
2023/02/09 08:31:16;;;;;;;12.27;3.78;;;;;;;-1.95;39.63;102886.84;4944027;28;20034;-70
2023/02/09 08:33:43;;;;;;;14.40;3.85;;;;;;;-2.44;40.98;102882.94;4941343;28;20058;-71
2023/02/09 08:36:10;;;;;;;9.70;3.92;;;;;;;-1.61;39.38;102883.16;4942211;28;20033;-70
2023/02/09 08:38:35;;;;;;;7.25;3.58;;;;;;;-1.99;39.72;102867.00;4938186;28;20098;-72
2023/02/09 08:41:03;;;;;;;8.52;3.33;;;;;;;-1.30;38.97;102871.63;4943168;28;20140;-71
2023/02/09 08:43:30;;;;;;;13.00;4.80;;;;;;;-1.60;38.93;102896.06;4969541;28;20480;-69
2023/02/09 08:46:02;;;;;;;9.30;4.10;;;;;;;-1.52;39.16;102882.69;4949395;28;20039;-71
2023/02/09 08:48:32;;;;;;;7.68;4.18;;;;;;;-1.86;39.63;102879.53;4939144;28;20769;-71
2023/02/09 08:50:57;;;;;;;9.32;4.03;;;;;;;-1.68;38.86;102883.72;4940464;28;20593;-70
2023/02/09 08:53:23;;;;;;;12.55;4.80;;;;;;;-1.42;38.59;102882.25;4944792;28;20606;-73
2023/02/09 08:55:48;;;;;;;10.23;4.25;;;;;;;-1.31;38.92;102887.81;4940847;28;20039;-69
2023/02/09 08:58:14;;;;;;;9.13;3.03;;;;;;;-1.25;38.96;102890.66;4940875;28;20102;-70
2023/02/09 09:00:39;;;;;;;7.43;3.80;;;;;;;-2.00;39.84;102888.28;4939081;28;20133;-72
2023/02/09 09:03:05;;;;;;;11.38;4.22;;;;;;;-1.74;39.50;102886.00;4938638;28;20118;-69
2023/02/09 09:05:33;;;;;;;10.82;4.00;;;;;;;-1.25;39.19;102880.41;4965264;28;20054;-70
2023/02/09 09:07:58;;;;;;;11.90;4.90;;;;;;;-1.68;39.51;102883.72;4945431;28;20343;-70
2023/02/09 09:10:24;;;;;;;9.48;4.40;;;;;;;-2.31;41.18;102896.28;4935901;28;20307;-70
2023/02/09 09:12:50;;;;;;;7.32;3.83;;;;;;;-1.47;39.81;102889.75;4940595;28;20133;-73
2023/02/09 09:15:15;;;;;;;10.27;4.07;;;;;;;-1.70;39.96;102895.59;4937966;28;20054;-70
2023/02/09 09:17:41;;;;;;;8.93;4.35;;;;;;;-1.02;39.07;102887.38;4938976;28;20405;-72
2023/02/09 09:20:07;;;;;;;8.63;4.30;;;;;;;-0.60;37.99;102892.44;4938451;28;21057;-71
2023/02/09 09:22:33;;;;;;;9.20;4.25;;;;;;;-0.88;38.49;102900.78;4935931;28;20571;-71
2023/02/09 09:24:58;;;;;;;12.73;5.10;;;;;;;0.09;36.86;102895.88;4939671;28;20041;-72
2023/02/09 09:27:23;;;;;;;7.53;4.70;;;;;;;-1.03;38.38;102895.00;4934286;28;20050;-69
2023/02/09 09:29:49;;;;;;;8.95;5.30;;;;;;;-1.14;38.68;102898.81;4938286;28;20730;-69
2023/02/09 09:32:14;;;;;;;8.73;4.68;;;;;;;-1.32;39.20;102906.63;4935496;28;20724;-68
2023/02/09 09:34:40;;;;;;;9.07;5.40;;;;;;;-0.62;38.78;102896.66;4965678;28;20097;-68
2023/02/09 09:37:06;;;;;;;9.48;5.05;;;;;;;-0.82;38.72;102897.56;4941309;28;20039;-67
2023/02/09 09:39:31;;;;;;;8.77;4.93;;;;;;;-0.24;37.93;102904.06;4937465;28;21687;-66
2023/02/09 09:41:59;;;;;;;6.30;3.47;;;;;;;0.33;36.75;102895.88;4937291;28;20555;-68
2023/02/09 09:44:30;;;;;;;13.18;4.28;;;;;;;-0.42;37.70;102891.41;4937561;28;20043;-67
2023/02/09 09:47:00;;;;;;;11.80;4.43;;;;;;;-0.26;37.70;102898.91;4936248;28;20050;-66
2023/02/09 09:49:28;;;;;;;10.13;5.10;;;;;;;0.22;37.22;102903.19;4937677;28;20062;-67
2023/02/09 09:52:19;;;;;;;8.55;3.78;;;;;;;0.12;37.48;102901.09;4940816;28;20042;-68
2023/02/09 09:54:45;;;;;;;8.68;4.03;;;;;;;-0.59;38.56;102901.06;4946910;28;20027;-67
2023/02/09 09:57:31;;;;;;;8.40;4.70;;;;;;;-0.19;37.78;102889.69;4941923;28;20452;-68
2023/02/09 10:00:00;;;;;;;8.35;3.50;;;;;;;0.17;37.68;102882.47;4946678;28;20054;-67
2023/02/09 10:02:32;;;;;;;8.48;3.95;;;;;;;-0.15;37.47;102897.59;4940643;28;20043;-67
2023/02/09 10:05:25;;;;;;;10.95;5.25;;;;;;;0.07;37.87;102898.38;4944723;28;20620;-68
2023/02/09 10:08:10;;;;;;;9.73;5.18;;;;;;;0.47;37.40;102902.34;4943594;28;20129;-68
2023/02/09 10:10:51;;;;;;;8.50;4.40;;;;;;;1.15;36.09;102900.31;4941615;28;20578;-70
2023/02/09 10:13:24;;;;;;;8.05;3.90;;;;;;;1.19;35.96;102911.59;4941595;28;20293;-69
2023/02/09 10:15:54;;;;;;;10.13;4.30;;;;;;;1.07;36.19;102900.06;4950522;28;20049;-69
2023/02/09 10:18:24;;;;;;;9.02;4.50;;;;;;;0.64;37.09;102918.38;4940172;28;20138;-68
2023/02/09 10:21:02;;;;;;;7.90;3.42;;;;;;;0.65;37.43;102905.53;4943028;28;20037;-66
2023/02/09 10:23:44;;;;;;;12.07;4.40;;;;;;;0.51;38.20;102914.50;4941055;28;20424;-71
2023/02/09 10:26:25;;;;;;;8.65;4.35;;;;;;;0.72;37.67;102910.91;4946462;28;20053;-71
2023/02/09 10:28:54;;;;;;;7.68;4.40;;;;;;;0.66;37.27;102917.59;4944195;28;20047;-67
2023/02/09 10:31:24;;;;;;;8.80;4.43;;;;;;;0.21;38.59;102917.75;4944392;28;20059;-69
2023/02/09 10:34:19;;;;;;;8.75;4.00;;;;;;;0.45;38.23;102922.88;4949020;28;20086;-69
2023/02/09 10:36:53;;;;;;;6.43;3.67;;;;;;;0.86;37.54;102920.00;4940048;28;20058;-70
2023/02/09 10:39:23;;;;;;;9.23;3.60;;;;;;;0.43;38.14;102923.66;4939209;28;20043;-70
2023/02/09 10:41:52;;;;;;;5.93;3.60;;;;;;;0.82;37.88;102920.69;4939835;28;20024;-69
2023/02/09 10:44:25;;;;;;;10.15;5.07;;;;;;;0.40;38.74;102926.13;4940924;28;20061;-69
2023/02/09 10:47:09;;;;;;;6.70;4.25;;;;;;;0.40;38.77;102924.41;4944801;28;20738;-70
2023/02/09 10:49:38;;;;;;;9.10;4.82;;;;;;;0.27;39.13;102929.94;4944364;28;20521;-70
2023/02/09 10:52:18;;;;;;;10.68;5.78;;;;;;;0.60;38.81;102927.69;4957415;28;20073;-70
2023/02/09 10:54:50;;;;;;;16.50;5.13;;;;;;;0.20;39.25;102922.84;4958975;28;20035;-69
2023/02/09 10:57:29;;;;;;;;;;;;;;;-0.08;39.97;102934.69;4942156;28;20046;-69
2023/02/09 11:00:00;;;;;;;11.02;3.50;;;;;;;0.42;39.44;102927.06;4959655;28;20533;-70
2023/02/09 11:02:40;;;;;;;8.18;3.95;;;;;;;0.28;39.37;102922.28;4945631;28;20050;-70
2023/02/09 11:05:20;;;;;;;12.00;5.47;;;;;;;0.17;40.01;102931.31;4944219;28;20040;-70
2023/02/09 11:07:52;;;;;;;11.18;4.75;;;;;;;0.41;39.35;102930.44;4943014;28;20055;-70
2023/02/09 11:10:19;;;;;;;;;;;;;;;0.59;39.24;102938.81;4942082;28;20149;-70
2023/02/09 11:12:45;;;;;;;11.50;4.72;;;;;;;0.88;38.87;102944.06;4945085;28;20607;-69
2023/02/09 11:15:15;;;;;;;9.65;5.63;;;;;;;0.11;40.20;102941.38;4937852;28;20027;-70
2023/02/09 11:17:58;;;;;;;11.57;5.78;;;;;;;0.17;40.19;102949.31;4949411;28;20051;-70
2023/02/09 11:20:38;;;;;;;9.35;5.40;;;;;;;0.16;40.51;102955.28;4956455;28;20035;-70
2023/02/09 11:23:18;;;;;;;9.93;5.22;;;;;;;0.60;39.40;102952.56;4960297;28;20129;-70
2023/02/09 11:25:56;;;;;;;10.18;5.57;;;;;;;0.17;40.27;102936.47;4947410;28;20039;-69
2023/02/09 11:28:53;;;;;;;13.95;5.47;;;;;;;0.49;40.01;102936.72;4939364;28;20051;-72
2023/02/09 11:31:34;;;;;;;14.23;6.05;;;;;;;0.98;38.57;102943.56;4942353;28;20042;-70
2023/02/09 11:34:30;;;;;;;13.85;6.68;;;;;;;1.37;38.26;102945.66;4965267;28;20047;-70
2023/02/09 11:37:20;;;;;;;9.50;4.72;;;;;;;1.56;38.45;102947.16;4941763;28;20035;-70
2023/02/09 11:39:58;;;;;;;8.18;5.15;;;;;;;1.05;39.27;102937.78;4992292;28;20096;-70